AZU2703 SBSP-SBIL
Flight info
| Callsign | AZU2703 |
|---|---|
| Flight time | 1h 37m |
| Altitude | 39000 |
| Route | VUMEV UZ14 DALOX |
| Aircraft | A20N/M-SDE2E3FGHIRWXY/LB1 |
Departure
| Time | 2026-04-20 18:30 |
|---|---|
| Airport | Congonhas–Deputado Freitas Nobre Airport (SBSP) |
Arrival
| Time | 2026-04-20 20:07 |
|---|---|
| Airport | Bahia - Jorge Amado Airport (SBIL) |
| Time | Latitude | Longitude | Altitude | Speed | Heading |
|---|---|---|---|---|---|
| 2026-04-20 18:20 | -23.62986 | -46.65637 | 2621 ft | 0 kts | 148° |
| 2026-04-20 18:24 | -23.62982 | -46.65640 | 2622 ft | 2 kts | 148° |
| 2026-04-20 18:25 | -23.62967 | -46.65650 | 2621 ft | 3 kts | 148° |
| 2026-04-20 18:25 | -23.62954 | -46.65659 | 2621 ft | 0 kts | 148° |
| 2026-04-20 18:25 | -23.62950 | -46.65658 | 2622 ft | 0 kts | 58° |
| 2026-04-20 18:26 | -23.62942 | -46.65643 | 2622 ft | 5 kts | 58° |
| 2026-04-20 18:26 | -23.62899 | -46.65603 | 2622 ft | 11 kts | 0° |
| 2026-04-20 18:26 | -23.62817 | -46.65649 | 2622 ft | 15 kts | 329° |
| 2026-04-20 18:26 | -23.62716 | -46.65713 | 2621 ft | 19 kts | 330° |
| 2026-04-20 18:27 | -23.62599 | -46.65797 | 2621 ft | 21 kts | 325° |
| 2026-04-20 18:27 | -23.62467 | -46.65893 | 2620 ft | 24 kts | 327° |
| 2026-04-20 18:27 | -23.62319 | -46.65998 | 2619 ft | 26 kts | 329° |
| 2026-04-20 18:27 | -23.62156 | -46.66103 | 2617 ft | 25 kts | 327° |
| 2026-04-20 18:28 | -23.62071 | -46.66139 | 2615 ft | 15 kts | 7° |
| 2026-04-20 18:28 | -23.62021 | -46.66095 | 2610 ft | 0 kts | 86° |
| 2026-04-20 18:28 | -23.62024 | -46.66093 | 2610 ft | 0 kts | 115° |
| 2026-04-20 18:28 | -23.62031 | -46.66090 | 2610 ft | 3 kts | 145° |
| 2026-04-20 18:29 | -23.62041 | -46.66082 | 2610 ft | 1 kts | 145° |
| 2026-04-20 18:29 | -23.62053 | -46.66073 | 2610 ft | 3 kts | 145° |
| 2026-04-20 18:29 | -23.62258 | -46.65932 | 2614 ft | 78 kts | 148° |
| 2026-04-20 18:29 | -23.62951 | -46.65450 | 2629 ft | 150 kts | 148° |
| 2026-04-20 18:30 | -23.63881 | -46.64788 | 3322 ft | 159 kts | 147° |
| 2026-04-20 18:30 | -23.64820 | -46.64122 | 4226 ft | 167 kts | 147° |
| 2026-04-20 18:30 | -23.65851 | -46.63401 | 4887 ft | 185 kts | 148° |
| 2026-04-20 18:30 | -23.66977 | -46.62599 | 5369 ft | 203 kts | 148° |
| 2026-04-20 18:31 | -23.68246 | -46.61717 | 5814 ft | 229 kts | 148° |
| 2026-04-20 18:31 | -23.69660 | -46.60716 | 6284 ft | 255 kts | 143° |
| 2026-04-20 18:31 | -23.70828 | -46.59167 | 6841 ft | 276 kts | 115° |
| 2026-04-20 18:31 | -23.71319 | -46.57120 | 7735 ft | 281 kts | 101° |
| 2026-04-20 18:32 | -23.71557 | -46.54995 | 8704 ft | 284 kts | 98° |
| 2026-04-20 18:32 | -23.71751 | -46.52833 | 9616 ft | 289 kts | 98° |
| 2026-04-20 18:32 | -23.71956 | -46.50633 | 10502 ft | 293 kts | 97° |
| 2026-04-20 18:32 | -23.71956 | -46.48392 | 11323 ft | 299 kts | 88° |
| 2026-04-20 18:33 | -23.71649 | -46.46122 | 12159 ft | 304 kts | 83° |
| 2026-04-20 18:33 | -23.71308 | -46.43826 | 12994 ft | 309 kts | 84° |
| 2026-04-20 18:33 | -23.70969 | -46.41459 | 13339 ft | 331 kts | 84° |
| 2026-04-20 18:33 | -23.70607 | -46.38884 | 13539 ft | 354 kts | 84° |
| 2026-04-20 18:34 | -23.70224 | -46.36183 | 14069 ft | 364 kts | 84° |
| 2026-04-20 18:34 | -23.69831 | -46.33441 | 14761 ft | 367 kts | 84° |
| 2026-04-20 18:34 | -23.69434 | -46.30671 | 15435 ft | 371 kts | 84° |
| 2026-04-20 18:34 | -23.69033 | -46.27876 | 16141 ft | 375 kts | 84° |
| 2026-04-20 18:35 | -23.68627 | -46.25044 | 16789 ft | 379 kts | 84° |
| 2026-04-20 18:35 | -23.68219 | -46.22188 | 17440 ft | 383 kts | 84° |
| 2026-04-20 18:35 | -23.67804 | -46.19293 | 18102 ft | 387 kts | 84° |
| 2026-04-20 18:35 | -23.67279 | -46.16385 | 18668 ft | 395 kts | 75° |
| 2026-04-20 18:36 | -23.66047 | -46.13630 | 19214 ft | 405 kts | 58° |
| 2026-04-20 18:36 | -23.64132 | -46.11357 | 19788 ft | 413 kts | 41° |
| 2026-04-20 18:36 | -23.61722 | -46.09685 | 20374 ft | 418 kts | 29° |
| 2026-04-20 18:36 | -23.59109 | -46.08273 | 20951 ft | 421 kts | 26° |
| 2026-04-20 18:37 | -23.56444 | -46.06901 | 21538 ft | 424 kts | 26° |
| 2026-04-20 18:37 | -23.53776 | -46.05503 | 22126 ft | 426 kts | 27° |
| 2026-04-20 18:37 | -23.51097 | -46.04062 | 22692 ft | 430 kts | 27° |
| 2026-04-20 18:37 | -23.48416 | -46.02592 | 23287 ft | 432 kts | 28° |
| 2026-04-20 18:38 | -23.45706 | -46.01146 | 23817 ft | 435 kts | 24° |
| 2026-04-20 18:38 | -23.43820 | -46.00392 | 24110 ft | 438 kts | 17° |
| 2026-04-20 18:38 | -23.39840 | -45.99542 | 24728 ft | 442 kts | 5° |
| 2026-04-20 18:38 | -23.36754 | -45.99409 | 25186 ft | 444 kts | 1° |
| 2026-04-20 18:39 | -23.33661 | -45.99310 | 25645 ft | 447 kts | 1° |
| 2026-04-20 18:39 | -23.30516 | -45.99203 | 26090 ft | 450 kts | 1° |
| 2026-04-20 18:39 | -23.27342 | -45.99093 | 26517 ft | 453 kts | 1° |
| 2026-04-20 18:39 | -23.24185 | -45.98981 | 26945 ft | 455 kts | 1° |
| 2026-04-20 18:40 | -23.21997 | -45.98904 | 27231 ft | 457 kts | 1° |
| 2026-04-20 18:40 | -23.18801 | -45.98791 | 27631 ft | 460 kts | 1° |
| 2026-04-20 18:40 | -23.15591 | -45.98677 | 28037 ft | 463 kts | 1° |
| 2026-04-20 18:40 | -23.12360 | -45.98564 | 28408 ft | 466 kts | 1° |
| 2026-04-20 18:41 | -23.09148 | -45.98451 | 28779 ft | 468 kts | 1° |
| 2026-04-20 18:41 | -23.05880 | -45.98336 | 29143 ft | 471 kts | 1° |
| 2026-04-20 18:41 | -23.02589 | -45.98221 | 29503 ft | 474 kts | 1° |
| 2026-04-20 18:41 | -22.99288 | -45.98106 | 29863 ft | 476 kts | 1° |
| 2026-04-20 18:42 | -22.95956 | -45.97989 | 30207 ft | 479 kts | 1° |
| 2026-04-20 18:42 | -22.92611 | -45.97814 | 30486 ft | 482 kts | 6° |
| 2026-04-20 18:42 | -22.89320 | -45.97089 | 30757 ft | 486 kts | 17° |
| 2026-04-20 18:42 | -22.86189 | -45.95697 | 31057 ft | 489 kts | 28° |
| 2026-04-20 18:43 | -22.83319 | -45.93717 | 31383 ft | 490 kts | 35° |
| 2026-04-20 18:43 | -22.80519 | -45.91590 | 31751 ft | 491 kts | 35° |
| 2026-04-20 18:43 | -22.77717 | -45.89471 | 32113 ft | 492 kts | 35° |
| 2026-04-20 18:43 | -22.74905 | -45.87350 | 32519 ft | 492 kts | 35° |
| 2026-04-20 18:44 | -22.72094 | -45.85233 | 32888 ft | 492 kts | 35° |
| 2026-04-20 18:44 | -22.69284 | -45.83120 | 33277 ft | 492 kts | 35° |
| 2026-04-20 18:44 | -22.66459 | -45.80997 | 33628 ft | 493 kts | 35° |
| 2026-04-20 18:44 | -22.63638 | -45.78877 | 33961 ft | 493 kts | 35° |
| 2026-04-20 18:45 | -22.60811 | -45.76754 | 34279 ft | 493 kts | 35° |
| 2026-04-20 18:45 | -22.57985 | -45.74633 | 34546 ft | 494 kts | 35° |
| 2026-04-20 18:45 | -22.55159 | -45.72513 | 34838 ft | 494 kts | 35° |
| 2026-04-20 18:45 | -22.52329 | -45.70391 | 35099 ft | 495 kts | 35° |
| 2026-04-20 18:46 | -22.49499 | -45.68271 | 35352 ft | 495 kts | 36° |
| 2026-04-20 18:46 | -22.46661 | -45.66145 | 35593 ft | 496 kts | 36° |
| 2026-04-20 18:46 | -22.43823 | -45.64021 | 35834 ft | 497 kts | 36° |
| 2026-04-20 18:46 | -22.40980 | -45.61894 | 36087 ft | 497 kts | 36° |
| 2026-04-20 18:47 | -22.38160 | -45.59786 | 36345 ft | 497 kts | 36° |
| 2026-04-20 18:47 | -22.35275 | -45.57631 | 36607 ft | 497 kts | 36° |
| 2026-04-20 18:47 | -22.32455 | -45.55524 | 36837 ft | 498 kts | 36° |
| 2026-04-20 18:47 | -22.29606 | -45.53398 | 37071 ft | 498 kts | 37° |
| 2026-04-20 18:48 | -22.26754 | -45.51270 | 37307 ft | 498 kts | 37° |
| 2026-04-20 18:48 | -22.23903 | -45.49144 | 37531 ft | 498 kts | 37° |
| 2026-04-20 18:48 | -22.21038 | -45.47009 | 37751 ft | 498 kts | 37° |
| 2026-04-20 18:48 | -22.18189 | -45.44886 | 37982 ft | 498 kts | 37° |
| 2026-04-20 18:49 | -22.15335 | -45.42761 | 38199 ft | 499 kts | 37° |
| 2026-04-20 18:49 | -22.12468 | -45.40627 | 38385 ft | 499 kts | 37° |
| 2026-04-20 18:49 | -22.09610 | -45.38500 | 38575 ft | 499 kts | 38° |
| 2026-04-20 18:49 | -22.06752 | -45.36375 | 38750 ft | 499 kts | 38° |
| 2026-04-20 18:50 | -22.03905 | -45.34243 | 38909 ft | 497 kts | 40° |
| 2026-04-20 18:50 | -22.01182 | -45.31964 | 39019 ft | 496 kts | 41° |
| 2026-04-20 18:50 | -21.95764 | -45.27376 | 39022 ft | 493 kts | 41° |
| 2026-04-20 18:51 | -21.90358 | -45.22810 | 39021 ft | 494 kts | 41° |
| 2026-04-20 18:51 | -21.84947 | -45.18249 | 39019 ft | 493 kts | 41° |
| 2026-04-20 18:52 | -21.79540 | -45.13697 | 39022 ft | 493 kts | 41° |
| 2026-04-20 18:52 | -21.74168 | -45.09177 | 39025 ft | 493 kts | 41° |
| 2026-04-20 18:53 | -21.68759 | -45.04630 | 39026 ft | 493 kts | 41° |
| 2026-04-20 18:53 | -21.63344 | -45.00083 | 39024 ft | 493 kts | 41° |
| 2026-04-20 18:54 | -21.57936 | -44.95546 | 39025 ft | 493 kts | 41° |
| 2026-04-20 18:54 | -21.52525 | -44.91011 | 39025 ft | 493 kts | 41° |
| 2026-04-20 18:55 | -21.47114 | -44.86481 | 39019 ft | 493 kts | 41° |
| 2026-04-20 18:55 | -21.41739 | -44.81986 | 39019 ft | 492 kts | 41° |
| 2026-04-20 18:56 | -21.36340 | -44.77475 | 39015 ft | 492 kts | 41° |
| 2026-04-20 18:56 | -21.30937 | -44.72961 | 39012 ft | 491 kts | 41° |
| 2026-04-20 18:57 | -21.25517 | -44.68438 | 39009 ft | 490 kts | 41° |
| 2026-04-20 18:57 | -21.20127 | -44.63943 | 39009 ft | 490 kts | 40° |
| 2026-04-20 18:58 | -21.14734 | -44.59451 | 39009 ft | 490 kts | 40° |
| 2026-04-20 18:58 | -21.09347 | -44.54969 | 39006 ft | 490 kts | 40° |
| 2026-04-20 18:59 | -21.03951 | -44.50483 | 39008 ft | 490 kts | 40° |
| 2026-04-20 18:59 | -20.98562 | -44.46007 | 39009 ft | 490 kts | 40° |
| 2026-04-20 19:00 | -20.93161 | -44.41528 | 39012 ft | 490 kts | 40° |
| 2026-04-20 19:00 | -20.87761 | -44.37055 | 39017 ft | 490 kts | 40° |
| 2026-04-20 19:01 | -20.82361 | -44.32587 | 39011 ft | 490 kts | 40° |
| 2026-04-20 19:01 | -20.76979 | -44.28138 | 39003 ft | 488 kts | 40° |
| 2026-04-20 19:02 | -20.71596 | -44.23691 | 39006 ft | 489 kts | 40° |
| 2026-04-20 19:02 | -20.66212 | -44.19247 | 39001 ft | 489 kts | 40° |
| 2026-04-20 19:03 | -20.60836 | -44.14787 | 39008 ft | 489 kts | 40° |
| 2026-04-20 19:03 | -20.55492 | -44.10268 | 39016 ft | 490 kts | 40° |
| 2026-04-20 19:04 | -20.50140 | -44.05752 | 39012 ft | 490 kts | 40° |
| 2026-04-20 19:04 | -20.44731 | -44.01310 | 39013 ft | 491 kts | 39° |
| 2026-04-20 19:05 | -20.39330 | -43.96911 | 39012 ft | 491 kts | 39° |
| 2026-04-20 19:05 | -20.33906 | -43.92483 | 39006 ft | 491 kts | 39° |
| 2026-04-20 19:06 | -20.28486 | -43.88055 | 39009 ft | 489 kts | 39° |
| 2026-04-20 19:06 | -20.23068 | -43.83632 | 39008 ft | 491 kts | 39° |
| 2026-04-20 19:07 | -20.17642 | -43.79209 | 39008 ft | 490 kts | 39° |
| 2026-04-20 19:07 | -20.12222 | -43.74794 | 39014 ft | 491 kts | 39° |
| 2026-04-20 19:08 | -20.04096 | -43.68181 | 39015 ft | 493 kts | 39° |
| 2026-04-20 19:09 | -19.98644 | -43.63751 | 39012 ft | 492 kts | 39° |
| 2026-04-20 19:09 | -19.94118 | -43.60075 | 39003 ft | 492 kts | 39° |
| 2026-04-20 19:10 | -19.88660 | -43.55646 | 38996 ft | 492 kts | 39° |
| 2026-04-20 19:10 | -19.83224 | -43.51226 | 38999 ft | 492 kts | 39° |
| 2026-04-20 19:11 | -19.77786 | -43.46804 | 38989 ft | 492 kts | 39° |
| 2026-04-20 19:11 | -19.72335 | -43.42377 | 38991 ft | 492 kts | 39° |
| 2026-04-20 19:12 | -19.66899 | -43.37967 | 38991 ft | 492 kts | 39° |
| 2026-04-20 19:12 | -19.61488 | -43.33580 | 38992 ft | 492 kts | 39° |
| 2026-04-20 19:13 | -19.56037 | -43.29164 | 38992 ft | 492 kts | 39° |
| 2026-04-20 19:13 | -19.50586 | -43.24752 | 38989 ft | 492 kts | 39° |
| 2026-04-20 19:14 | -19.45169 | -43.20371 | 38992 ft | 492 kts | 39° |
| 2026-04-20 19:14 | -19.39712 | -43.15962 | 38992 ft | 493 kts | 39° |
| 2026-04-20 19:15 | -19.34249 | -43.11552 | 38994 ft | 493 kts | 39° |
| 2026-04-20 19:15 | -19.28769 | -43.07131 | 38990 ft | 494 kts | 39° |
| 2026-04-20 19:16 | -19.23295 | -43.02719 | 38996 ft | 494 kts | 39° |
| 2026-04-20 19:16 | -19.17841 | -42.98326 | 38992 ft | 495 kts | 39° |
| 2026-04-20 19:17 | -19.12351 | -42.93910 | 39001 ft | 496 kts | 39° |
| 2026-04-20 19:17 | -19.06852 | -42.89490 | 38996 ft | 495 kts | 39° |
| 2026-04-20 19:18 | -19.01373 | -42.85089 | 38998 ft | 494 kts | 39° |
| 2026-04-20 19:18 | -18.95915 | -42.80709 | 38998 ft | 495 kts | 39° |
| 2026-04-20 19:19 | -18.90422 | -42.76305 | 39003 ft | 495 kts | 39° |
| 2026-04-20 19:19 | -18.84933 | -42.71909 | 39009 ft | 495 kts | 38° |
| 2026-04-20 19:20 | -18.79435 | -42.67510 | 39002 ft | 495 kts | 38° |
| 2026-04-20 19:20 | -18.73975 | -42.63146 | 39006 ft | 495 kts | 38° |
| 2026-04-20 19:21 | -18.68477 | -42.58754 | 39007 ft | 495 kts | 38° |
| 2026-04-20 19:21 | -18.62975 | -42.54361 | 39005 ft | 495 kts | 38° |
| 2026-04-20 19:22 | -18.57482 | -42.49979 | 39004 ft | 495 kts | 38° |
| 2026-04-20 19:22 | -18.51991 | -42.45602 | 38998 ft | 495 kts | 38° |
| 2026-04-20 19:23 | -18.46492 | -42.41222 | 38997 ft | 495 kts | 38° |
| 2026-04-20 19:23 | -18.40993 | -42.36847 | 38997 ft | 494 kts | 38° |
| 2026-04-20 19:24 | -18.35541 | -42.32511 | 38996 ft | 495 kts | 38° |
| 2026-04-20 19:24 | -18.30040 | -42.28142 | 38994 ft | 494 kts | 38° |
| 2026-04-20 19:25 | -18.24533 | -42.23772 | 38986 ft | 495 kts | 38° |
| 2026-04-20 19:25 | -18.19031 | -42.19409 | 38984 ft | 495 kts | 38° |
| 2026-04-20 19:26 | -18.13560 | -42.15073 | 38988 ft | 495 kts | 38° |
| 2026-04-20 19:26 | -18.08066 | -42.10723 | 38988 ft | 495 kts | 38° |
| 2026-04-20 19:27 | -18.02565 | -42.06373 | 38993 ft | 494 kts | 38° |
| 2026-04-20 19:27 | -17.97073 | -42.02032 | 38997 ft | 495 kts | 38° |
| 2026-04-20 19:28 | -17.91558 | -41.97676 | 39002 ft | 495 kts | 38° |
| 2026-04-20 19:28 | -17.86051 | -41.93332 | 39000 ft | 495 kts | 38° |
| 2026-04-20 19:29 | -17.80539 | -41.88985 | 39007 ft | 494 kts | 37° |
| 2026-04-20 19:29 | -17.75028 | -41.84643 | 39011 ft | 495 kts | 37° |
| 2026-04-20 19:30 | -17.69531 | -41.80315 | 39010 ft | 494 kts | 37° |
| 2026-04-20 19:30 | -17.64024 | -41.75983 | 39010 ft | 494 kts | 37° |
| 2026-04-20 19:31 | -17.58527 | -41.71661 | 39012 ft | 494 kts | 37° |
| 2026-04-20 19:31 | -17.53053 | -41.67361 | 39016 ft | 495 kts | 37° |
| 2026-04-20 19:32 | -17.47537 | -41.63032 | 39014 ft | 495 kts | 37° |
| 2026-04-20 19:32 | -17.42020 | -41.58706 | 39017 ft | 495 kts | 37° |
| 2026-04-20 19:33 | -17.36502 | -41.54381 | 39011 ft | 495 kts | 37° |
| 2026-04-20 19:33 | -17.30983 | -41.50059 | 39008 ft | 495 kts | 37° |
| 2026-04-20 19:34 | -17.25504 | -41.45770 | 39014 ft | 495 kts | 37° |
| 2026-04-20 19:34 | -17.19990 | -41.41457 | 39009 ft | 494 kts | 37° |
| 2026-04-20 19:35 | -17.14486 | -41.37156 | 39007 ft | 494 kts | 37° |
| 2026-04-20 19:35 | -17.08983 | -41.32860 | 39002 ft | 493 kts | 37° |
| 2026-04-20 19:36 | -17.03477 | -41.28563 | 38999 ft | 493 kts | 36° |
| 2026-04-20 19:36 | -16.97964 | -41.24265 | 38996 ft | 493 kts | 36° |
| 2026-04-20 19:37 | -16.92459 | -41.19976 | 38991 ft | 493 kts | 36° |
| 2026-04-20 19:37 | -16.86957 | -41.15693 | 38984 ft | 492 kts | 36° |
| 2026-04-20 19:38 | -16.81467 | -41.11421 | 38985 ft | 492 kts | 36° |
| 2026-04-20 19:38 | -16.75974 | -41.07151 | 38981 ft | 492 kts | 36° |
| 2026-04-20 19:39 | -16.70482 | -41.02885 | 38975 ft | 492 kts | 36° |
| 2026-04-20 19:39 | -16.64989 | -40.98622 | 38981 ft | 492 kts | 36° |
| 2026-04-20 19:40 | -16.59530 | -40.94387 | 38976 ft | 492 kts | 36° |
| 2026-04-20 19:40 | -16.54023 | -40.90119 | 38978 ft | 493 kts | 36° |
| 2026-04-20 19:41 | -16.48511 | -40.85850 | 38984 ft | 493 kts | 36° |
| 2026-04-20 19:41 | -16.42998 | -40.81583 | 38983 ft | 493 kts | 36° |
| 2026-04-20 19:42 | -16.37490 | -40.77323 | 38983 ft | 493 kts | 35° |
| 2026-04-20 19:42 | -16.31961 | -40.73050 | 38991 ft | 493 kts | 35° |
| 2026-04-20 19:43 | -16.26447 | -40.68792 | 38978 ft | 492 kts | 35° |
| 2026-04-20 19:43 | -16.20946 | -40.64547 | 38976 ft | 491 kts | 35° |
| 2026-04-20 19:44 | -16.15444 | -40.60305 | 38963 ft | 491 kts | 35° |
| 2026-04-20 19:44 | -16.12706 | -40.58194 | 38764 ft | 489 kts | 35° |
| 2026-04-20 19:44 | -16.09965 | -40.56082 | 38125 ft | 491 kts | 35° |
| 2026-04-20 19:44 | -16.07206 | -40.53957 | 37267 ft | 495 kts | 34° |
| 2026-04-20 19:45 | -16.04420 | -40.51812 | 36311 ft | 501 kts | 34° |
| 2026-04-20 19:45 | -16.01630 | -40.49665 | 35320 ft | 508 kts | 34° |
| 2026-04-20 19:45 | -15.98734 | -40.47437 | 34413 ft | 512 kts | 34° |
| 2026-04-20 19:45 | -15.95896 | -40.45252 | 33527 ft | 514 kts | 34° |
| 2026-04-20 19:46 | -15.93031 | -40.43049 | 32675 ft | 513 kts | 34° |
| 2026-04-20 19:46 | -15.90155 | -40.40841 | 31809 ft | 513 kts | 34° |
| 2026-04-20 19:46 | -15.87276 | -40.38632 | 30918 ft | 512 kts | 34° |
| 2026-04-20 19:46 | -15.84417 | -40.36441 | 30079 ft | 511 kts | 34° |
| 2026-04-20 19:47 | -15.81550 | -40.34243 | 29108 ft | 509 kts | 34° |
| 2026-04-20 19:47 | -15.78714 | -40.32068 | 28431 ft | 502 kts | 34° |
| 2026-04-20 19:47 | -15.76861 | -40.30647 | 28012 ft | 497 kts | 34° |
| 2026-04-20 19:47 | -15.73176 | -40.27823 | 27192 ft | 487 kts | 34° |
| 2026-04-20 19:48 | -15.70496 | -40.25771 | 26575 ft | 481 kts | 34° |
| 2026-04-20 19:48 | -15.67821 | -40.23724 | 25937 ft | 475 kts | 34° |
| 2026-04-20 19:48 | -15.66033 | -40.22356 | 25551 ft | 471 kts | 34° |
| 2026-04-20 19:48 | -15.63438 | -40.20372 | 24948 ft | 465 kts | 34° |
| 2026-04-20 19:49 | -15.59979 | -40.17726 | 24158 ft | 458 kts | 35° |
| 2026-04-20 19:49 | -15.57570 | -40.15575 | 23557 ft | 455 kts | 43° |
| 2026-04-20 19:49 | -15.56085 | -40.13988 | 23066 ft | 453 kts | 45° |
| 2026-04-20 19:49 | -15.53946 | -40.11678 | 22537 ft | 445 kts | 45° |
| 2026-04-20 19:50 | -15.51818 | -40.09386 | 21957 ft | 439 kts | 45° |
| 2026-04-20 19:50 | -15.49714 | -40.07125 | 21372 ft | 433 kts | 45° |
| 2026-04-20 19:50 | -15.47631 | -40.04889 | 20816 ft | 427 kts | 45° |
| 2026-04-20 19:50 | -15.45574 | -40.02682 | 20245 ft | 423 kts | 45° |
| 2026-04-20 19:51 | -15.43539 | -40.00500 | 19659 ft | 419 kts | 45° |
| 2026-04-20 19:51 | -15.41522 | -39.98336 | 19084 ft | 415 kts | 45° |
| 2026-04-20 19:51 | -15.39524 | -39.96195 | 18523 ft | 412 kts | 45° |
| 2026-04-20 19:51 | -15.37543 | -39.94072 | 17924 ft | 408 kts | 45° |
| 2026-04-20 19:52 | -15.35586 | -39.91975 | 17404 ft | 402 kts | 45° |
| 2026-04-20 19:52 | -15.33651 | -39.89901 | 16865 ft | 397 kts | 45° |
| 2026-04-20 19:52 | -15.31744 | -39.87859 | 16321 ft | 393 kts | 45° |
| 2026-04-20 19:52 | -15.29853 | -39.85836 | 15781 ft | 388 kts | 45° |
| 2026-04-20 19:53 | -15.27982 | -39.83833 | 15234 ft | 385 kts | 45° |
| 2026-04-20 19:53 | -15.26126 | -39.81847 | 14676 ft | 382 kts | 45° |
| 2026-04-20 19:53 | -15.24286 | -39.79879 | 14184 ft | 379 kts | 45° |
| 2026-04-20 19:53 | -15.22477 | -39.77944 | 13637 ft | 376 kts | 45° |
| 2026-04-20 19:54 | -15.20664 | -39.76006 | 13104 ft | 372 kts | 45° |
| 2026-04-20 19:54 | -15.18869 | -39.74090 | 12582 ft | 368 kts | 45° |
| 2026-04-20 19:54 | -15.17101 | -39.72203 | 12072 ft | 364 kts | 46° |
| 2026-04-20 19:54 | -15.15347 | -39.70331 | 11550 ft | 360 kts | 46° |
| 2026-04-20 19:55 | -15.13606 | -39.68473 | 11052 ft | 357 kts | 46° |
| 2026-04-20 19:55 | -15.11885 | -39.66636 | 10521 ft | 355 kts | 46° |
| 2026-04-20 19:55 | -15.10186 | -39.64824 | 10267 ft | 344 kts | 47° |
| 2026-04-20 19:55 | -15.08554 | -39.63084 | 10138 ft | 330 kts | 47° |
| 2026-04-20 19:56 | -15.07008 | -39.61434 | 10026 ft | 316 kts | 47° |
| 2026-04-20 19:56 | -15.05507 | -39.59832 | 9841 ft | 306 kts | 47° |
| 2026-04-20 19:56 | -15.04032 | -39.58258 | 9458 ft | 303 kts | 47° |
| 2026-04-20 19:56 | -15.02573 | -39.56702 | 9084 ft | 299 kts | 47° |
| 2026-04-20 19:57 | -15.01128 | -39.55160 | 8709 ft | 297 kts | 47° |
| 2026-04-20 19:57 | -14.99744 | -39.53593 | 8339 ft | 292 kts | 54° |
| 2026-04-20 19:57 | -14.98524 | -39.51919 | 7968 ft | 290 kts | 55° |
| 2026-04-20 19:57 | -14.97316 | -39.50263 | 7601 ft | 287 kts | 54° |
| 2026-04-20 19:58 | -14.96112 | -39.48620 | 7237 ft | 286 kts | 54° |
| 2026-04-20 19:58 | -14.94911 | -39.46985 | 6870 ft | 284 kts | 54° |
| 2026-04-20 19:58 | -14.93716 | -39.45358 | 6502 ft | 283 kts | 54° |
| 2026-04-20 19:58 | -14.92525 | -39.43739 | 6126 ft | 282 kts | 54° |
| 2026-04-20 19:59 | -14.91337 | -39.42124 | 5755 ft | 281 kts | 55° |
| 2026-04-20 19:59 | -14.90175 | -39.40543 | 5400 ft | 278 kts | 54° |
| 2026-04-20 19:59 | -14.89007 | -39.38954 | 5038 ft | 277 kts | 54° |
| 2026-04-20 19:59 | -14.87843 | -39.37372 | 4657 ft | 276 kts | 54° |
| 2026-04-20 20:00 | -14.86684 | -39.35799 | 4296 ft | 275 kts | 55° |
| 2026-04-20 20:00 | -14.85528 | -39.34230 | 4036 ft | 270 kts | 55° |
| 2026-04-20 20:00 | -14.84410 | -39.32717 | 3964 ft | 259 kts | 55° |
| 2026-04-20 20:00 | -14.83343 | -39.31271 | 3957 ft | 245 kts | 55° |
| 2026-04-20 20:01 | -14.82480 | -39.29843 | 3918 ft | 226 kts | 73° |
| 2026-04-20 20:01 | -14.82231 | -39.28313 | 3834 ft | 209 kts | 93° |
| 2026-04-20 20:01 | -14.82216 | -39.26846 | 3759 ft | 199 kts | 92° |
| 2026-04-20 20:01 | -14.82186 | -39.25439 | 3571 ft | 196 kts | 92° |
| 2026-04-20 20:02 | -14.82151 | -39.24063 | 3385 ft | 192 kts | 92° |
| 2026-04-20 20:02 | -14.82113 | -39.22688 | 3155 ft | 191 kts | 92° |
| 2026-04-20 20:02 | -14.82077 | -39.21326 | 2926 ft | 188 kts | 91° |
| 2026-04-20 20:02 | -14.82038 | -39.19974 | 2693 ft | 186 kts | 92° |
| 2026-04-20 20:03 | -14.82000 | -39.18654 | 2709 ft | 189 kts | 92° |
| 2026-04-20 20:03 | -14.81968 | -39.17263 | 2676 ft | 195 kts | 91° |
| 2026-04-20 20:03 | -14.81930 | -39.15885 | 2602 ft | 188 kts | 91° |
| 2026-04-20 20:03 | -14.81894 | -39.14538 | 2421 ft | 186 kts | 92° |
| 2026-04-20 20:04 | -14.81858 | -39.13256 | 2349 ft | 167 kts | 92° |
| 2026-04-20 20:04 | -14.81830 | -39.12129 | 2232 ft | 148 kts | 91° |
| 2026-04-20 20:04 | -14.81804 | -39.11139 | 2148 ft | 129 kts | 92° |
| 2026-04-20 20:04 | -14.81773 | -39.10233 | 1934 ft | 123 kts | 92° |
| 2026-04-20 20:05 | -14.81751 | -39.09348 | 1594 ft | 128 kts | 92° |
| 2026-04-20 20:05 | -14.81732 | -39.08411 | 1204 ft | 132 kts | 92° |
| 2026-04-20 20:05 | -14.81715 | -39.07468 | 910 ft | 128 kts | 92° |
| 2026-04-20 20:05 | -14.81670 | -39.06565 | 671 ft | 124 kts | 92° |
| 2026-04-20 20:06 | -14.81646 | -39.05667 | 495 ft | 127 kts | 93° |
| 2026-04-20 20:06 | -14.81625 | -39.04745 | 241 ft | 129 kts | 95° |
| 2026-04-20 20:06 | -14.81606 | -39.03836 | 26 ft | 124 kts | 92° |
| 2026-04-20 20:06 | -14.81594 | -39.03118 | 16 ft | 59 kts | 86° |
| 2026-04-20 20:07 | -14.81595 | -39.02896 | 17 ft | 1 kts | 59° |
| 2026-04-20 20:07 | -14.81589 | -39.02900 | 17 ft | 1 kts | 335° |
| 2026-04-20 20:07 | -14.81585 | -39.02955 | 17 ft | 19 kts | 274° |
| 2026-04-20 20:07 | -14.81558 | -39.03079 | 17 ft | 5 kts | 333° |
| 2026-04-20 20:08 | -14.81537 | -39.03092 | 16 ft | 4 kts | 304° |
| 2026-04-20 20:08 | -14.81511 | -39.03100 | 16 ft | 6 kts | 342° |
| 2026-04-20 20:08 | -14.81490 | -39.03137 | 19 ft | 7 kts | 287° |
| 2026-04-20 20:08 | -14.81459 | -39.03177 | 18 ft | 8 kts | 352° |
| 2026-04-20 20:09 | -14.81447 | -39.03177 | 19 ft | 0 kts | 358° |